createdAt,value
2018-12-29T00:00:08.172Z,99848.52
2018-12-29T00:03:15.362Z,99846.08
2018-12-29T00:06:21.056Z,99846.86
2018-12-29T00:09:26.758Z,99852.81
2018-12-29T00:12:32.383Z,99858.00
2018-12-29T00:15:38.236Z,99869.52
2018-12-29T00:18:43.830Z,99864.52
2018-12-29T00:21:49.463Z,99870.98
2018-12-29T00:24:55.042Z,99867.22
2018-12-29T00:28:00.737Z,99860.61
2018-12-29T00:31:06.333Z,99865.03
2018-12-29T00:34:11.927Z,99861.50
2018-12-29T00:37:17.565Z,99860.20
2018-12-29T00:40:23.715Z,99859.10
2018-12-29T00:43:29.479Z,99851.91
2018-12-29T00:46:35.199Z,99862.36
2018-12-29T00:49:40.867Z,99859.02
2018-12-29T00:52:46.547Z,99860.44
2018-12-29T00:55:52.170Z,99860.12
2018-12-29T00:58:57.767Z,99850.58
2018-12-29T01:02:03.406Z,99852.75
2018-12-29T01:05:09.348Z,99856.13
2018-12-29T01:08:15.014Z,99858.44
2018-12-29T01:11:20.632Z,99852.52
2018-12-29T01:14:26.301Z,99851.20
2018-12-29T01:17:31.961Z,99848.22
2018-12-29T01:20:37.650Z,99848.70
2018-12-29T01:23:43.277Z,99846.45
2018-12-29T01:26:48.870Z,99843.39
2018-12-29T01:29:55.593Z,99844.94
2018-12-29T01:33:01.179Z,99845.79
2018-12-29T01:36:06.767Z,99841.59
2018-12-29T01:39:12.382Z,99835.81
2018-12-29T01:42:18.011Z,99828.17
2018-12-29T01:45:23.591Z,99830.77
2018-12-29T01:48:29.204Z,99821.50
2018-12-29T01:51:34.843Z,99827.28
2018-12-29T01:54:40.501Z,99832.38
2018-12-29T01:57:46.220Z,99820.48
2018-12-29T02:00:51.842Z,99829.08
2018-12-29T02:03:57.481Z,99827.73
2018-12-29T02:07:03.508Z,99829.83
2018-12-29T02:10:09.330Z,99828.47
2018-12-29T02:13:14.974Z,99829.77
2018-12-29T02:16:20.600Z,99828.86
2018-12-29T02:19:26.539Z,99836.02
2018-12-29T02:22:32.147Z,99830.29
2018-12-29T02:25:37.760Z,99829.16
2018-12-29T02:28:43.365Z,99834.47
2018-12-29T02:31:48.995Z,99835.06
2018-12-29T02:34:54.706Z,99837.33
2018-12-29T02:38:00.357Z,99839.32
2018-12-29T02:41:05.965Z,99834.31
2018-12-29T02:44:11.575Z,99829.69
2018-12-29T02:47:17.162Z,99826.56
2018-12-29T02:50:22.780Z,99821.61
2018-12-29T02:53:28.359Z,99826.11
2018-12-29T02:56:33.944Z,99829.64
2018-12-29T02:59:39.562Z,99826.92
2018-12-29T03:02:45.192Z,99835.20
2018-12-29T03:05:50.835Z,99839.47
2018-12-29T03:08:56.445Z,99837.80
2018-12-29T03:12:02.312Z,99842.28
2018-12-29T03:15:07.939Z,99840.36
2018-12-29T03:18:13.578Z,99841.08
2018-12-29T03:21:19.197Z,99835.35
2018-12-29T03:24:24.848Z,99845.57
2018-12-29T03:27:30.468Z,99837.19
2018-12-29T03:30:36.057Z,99835.31
2018-12-29T03:33:41.650Z,99820.25
2018-12-29T03:36:47.260Z,99811.42
2018-12-29T03:39:52.917Z,99815.31
2018-12-29T03:42:58.527Z,99819.99
2018-12-29T03:46:04.163Z,99815.73
2018-12-29T03:49:09.781Z,99822.45
2018-12-29T03:52:15.404Z,99826.07
2018-12-29T03:55:20.992Z,99830.55
2018-12-29T03:58:26.585Z,99831.09
2018-12-29T04:01:32.195Z,99831.66
2018-12-29T04:04:37.811Z,99835.31
2018-12-29T04:07:43.415Z,99834.98
2018-12-29T04:10:49.015Z,99842.86
2018-12-29T04:13:54.606Z,99838.97
2018-12-29T04:17:00.169Z,99839.63
2018-12-29T04:20:06.009Z,99846.19
2018-12-29T04:23:11.637Z,99849.77
2018-12-29T04:26:17.301Z,99851.69
2018-12-29T04:29:22.920Z,99846.70
2018-12-29T04:32:28.590Z,99842.28
2018-12-29T04:35:34.227Z,99847.10
2018-12-29T04:38:39.843Z,99850.78
2018-12-29T04:41:45.474Z,99853.06
2018-12-29T04:44:51.053Z,99854.47
2018-12-29T04:47:56.667Z,99848.80
2018-12-29T04:51:02.253Z,99850.52
2018-12-29T04:54:07.931Z,99855.36
2018-12-29T04:57:13.577Z,99858.46
2018-12-29T05:00:19.243Z,99860.79
2018-12-29T05:03:24.870Z,99856.80
2018-12-29T05:06:30.512Z,99852.59
2018-12-29T05:09:36.118Z,99860.56
2018-12-29T05:12:41.723Z,99854.81
2018-12-29T05:15:47.295Z,99857.27
2018-12-29T05:18:52.877Z,99866.59
2018-12-29T05:21:58.499Z,99862.95
2018-12-29T05:25:04.105Z,99867.47
2018-12-29T05:28:09.727Z,99873.14
2018-12-29T05:31:15.332Z,99874.91
2018-12-29T05:34:21.005Z,99875.11
2018-12-29T05:37:26.648Z,99875.67
2018-12-29T05:40:32.256Z,99878.55
2018-12-29T05:43:37.873Z,99882.34
2018-12-29T05:46:43.471Z,99891.89
2018-12-29T05:49:49.086Z,99899.28
2018-12-29T05:52:54.734Z,99907.55
2018-12-29T05:56:00.404Z,99903.04
2018-12-29T05:59:06.020Z,99908.63
2018-12-29T06:02:11.636Z,99920.25
2018-12-29T06:05:17.234Z,99912.76
2018-12-29T06:08:22.842Z,99918.98
2018-12-29T06:11:28.443Z,99926.53
2018-12-29T06:14:34.126Z,99934.67
2018-12-29T06:17:39.773Z,99938.88
2018-12-29T06:20:45.429Z,99943.31
2018-12-29T06:23:51.050Z,99948.95
2018-12-29T06:26:56.636Z,99946.31
2018-12-29T06:30:02.255Z,99950.48
2018-12-29T06:33:07.895Z,99952.28
2018-12-29T06:36:13.484Z,99948.02
2018-12-29T06:39:19.075Z,99950.69
2018-12-29T06:42:24.706Z,99950.03
2018-12-29T06:45:30.275Z,99952.50
2018-12-29T06:48:35.894Z,99948.01
2018-12-29T06:51:41.510Z,99947.17
2018-12-29T06:54:47.188Z,99941.28
2018-12-29T06:57:52.902Z,99947.60
2018-12-29T07:00:58.534Z,99948.27
2018-12-29T07:04:04.361Z,99941.94
2018-12-29T07:07:09.990Z,99935.96
2018-12-29T07:10:15.618Z,99945.77
2018-12-29T07:13:21.207Z,99940.45
2018-12-29T07:16:26.793Z,99945.48
2018-12-29T07:19:32.420Z,99939.12
2018-12-29T07:22:38.081Z,99932.42
2018-12-29T07:25:43.708Z,99931.27
2018-12-29T07:28:49.438Z,99930.71
2018-12-29T07:31:55.042Z,99935.97
2018-12-29T07:35:00.681Z,99936.03
2018-12-29T07:38:06.262Z,99928.98
2018-12-29T07:41:11.895Z,99919.88
2018-12-29T07:44:17.525Z,99926.02
2018-12-29T07:47:23.113Z,99921.71
2018-12-29T07:50:28.732Z,99935.56
2018-12-29T07:53:34.375Z,99947.39
2018-12-29T07:56:40.878Z,99947.28
2018-12-29T07:59:46.514Z,99950.58
2018-12-29T08:02:52.106Z,99952.48
2018-12-29T08:05:57.736Z,99944.83
2018-12-29T08:09:03.856Z,99946.03
2018-12-29T08:12:09.518Z,99952.48
2018-12-29T08:15:15.222Z,99955.46
2018-12-29T08:18:20.820Z,99963.49
2018-12-29T08:21:26.445Z,99961.30
2018-12-29T08:24:32.069Z,99967.18
2018-12-29T08:27:37.702Z,99961.02
2018-12-29T08:30:43.403Z,99965.77
2018-12-29T08:33:49.057Z,99963.41
2018-12-29T08:36:54.684Z,99966.25
2018-12-29T08:40:00.301Z,99974.36
2018-12-29T08:43:05.887Z,99967.04
2018-12-29T08:46:11.518Z,99970.46
2018-12-29T08:49:17.092Z,99973.94
2018-12-29T08:52:22.732Z,99966.97
2018-12-29T08:55:29.938Z,99966.81
2018-12-29T08:58:35.720Z,99962.63
2018-12-29T09:01:41.353Z,99966.50
2018-12-29T09:04:47.082Z,99969.14
2018-12-29T09:07:52.776Z,99965.88
2018-12-29T09:10:58.389Z,99961.31
2018-12-29T09:14:03.969Z,99966.27
2018-12-29T09:17:12.275Z,99967.34
2018-12-29T09:20:16.879Z,99970.16
2018-12-29T09:23:22.466Z,99974.06
2018-12-29T09:26:28.093Z,99979.75
2018-12-29T09:29:33.711Z,99975.39
2018-12-29T09:32:39.398Z,99979.51
2018-12-29T09:35:45.054Z,99982.93
2018-12-29T09:38:50.679Z,99987.64
2018-12-29T09:41:56.341Z,99987.31
2018-12-29T09:45:02.010Z,99983.76
2018-12-29T09:48:07.690Z,99988.88
2018-12-29T09:51:13.374Z,99983.66
2018-12-29T09:54:19.025Z,99985.66
2018-12-29T09:57:24.657Z,99971.64
2018-12-29T10:00:30.331Z,99972.61
2018-12-29T10:03:35.964Z,99967.75
2018-12-29T10:06:41.593Z,99961.52
2018-12-29T10:09:47.179Z,99962.36
2018-12-29T10:12:52.759Z,99955.63
2018-12-29T10:15:58.394Z,99943.41
2018-12-29T10:19:04.086Z,99931.03
2018-12-29T10:22:09.759Z,99923.69
2018-12-29T10:25:15.479Z,99924.33
2018-12-29T10:28:21.248Z,99928.38
2018-12-29T10:31:26.923Z,99932.91
2018-12-29T10:34:32.560Z,99932.37
2018-12-29T10:37:38.190Z,99928.98
2018-12-29T10:40:43.783Z,99928.36
2018-12-29T10:43:49.505Z,99940.44
2018-12-29T10:46:55.109Z,99926.85
2018-12-29T10:50:00.697Z,99923.53
2018-12-29T10:53:06.336Z,99922.13
2018-12-29T10:56:11.976Z,99921.06
2018-12-29T10:59:17.564Z,99915.70
2018-12-29T11:02:23.180Z,99917.27
2018-12-29T11:05:28.939Z,99923.34
2018-12-29T11:08:34.609Z,99927.50
2018-12-29T11:11:40.238Z,99923.88
2018-12-29T11:14:46.853Z,99917.45
2018-12-29T11:17:52.515Z,99930.78
2018-12-29T11:20:58.128Z,99924.24
2018-12-29T11:24:03.810Z,99918.83
2018-12-29T11:27:09.486Z,99926.12
2018-12-29T11:30:15.113Z,99926.12
2018-12-29T11:33:20.796Z,99927.61
2018-12-29T11:36:26.444Z,99925.39
2018-12-29T11:39:32.081Z,99935.36
2018-12-29T11:42:37.714Z,99932.27
2018-12-29T11:45:43.339Z,99948.37
2018-12-29T11:48:50.182Z,99948.28
2018-12-29T11:51:57.131Z,99953.80
2018-12-29T11:55:02.762Z,99945.59
2018-12-29T11:58:08.400Z,99947.20
2018-12-29T12:01:14.833Z,99955.39
2018-12-29T12:04:20.498Z,99955.36
2018-12-29T12:07:26.088Z,99959.52
2018-12-29T12:10:31.765Z,99967.37
2018-12-29T12:13:37.403Z,99961.58
2018-12-29T12:16:43.010Z,99972.20
2018-12-29T12:19:48.671Z,99982.36
2018-12-29T12:22:54.305Z,99988.14
2018-12-29T12:25:59.961Z,99982.27
2018-12-29T12:29:05.731Z,99985.45
2018-12-29T12:32:11.739Z,99986.83
2018-12-29T12:35:17.363Z,100002.97
2018-12-29T12:38:23.056Z,99995.78
2018-12-29T12:41:28.793Z,99998.46
2018-12-29T12:44:34.875Z,100001.19
2018-12-29T12:47:40.552Z,100001.91
2018-12-29T12:50:46.185Z,100003.13
2018-12-29T12:53:51.848Z,100007.44
2018-12-29T12:56:57.470Z,100005.53
2018-12-29T13:00:03.437Z,100016.61
2018-12-29T13:03:09.544Z,100016.84
2018-12-29T13:06:15.173Z,100025.47
2018-12-29T13:09:20.760Z,100023.34
2018-12-29T13:12:26.356Z,100039.55
2018-12-29T13:15:32.004Z,100034.66
2018-12-29T13:18:37.630Z,100040.38
2018-12-29T13:21:43.256Z,100043.46
2018-12-29T13:24:48.887Z,100045.02
2018-12-29T13:27:54.488Z,100051.81
2018-12-29T13:31:00.091Z,100059.00
2018-12-29T13:34:05.717Z,100059.98
2018-12-29T13:37:11.400Z,100066.88
2018-12-29T13:40:17.140Z,100064.06
2018-12-29T13:43:22.772Z,100071.66
2018-12-29T13:46:28.438Z,100078.61
2018-12-29T13:49:34.192Z,100073.08
2018-12-29T13:52:39.861Z,100076.73
2018-12-29T13:55:45.490Z,100082.47
2018-12-29T13:58:51.168Z,100080.53
2018-12-29T14:01:56.779Z,100088.29
2018-12-29T14:05:02.391Z,100082.61
2018-12-29T14:08:08.129Z,100094.52
2018-12-29T14:11:13.831Z,100096.28
2018-12-29T14:14:19.546Z,100101.86
2018-12-29T14:17:25.183Z,100105.05
2018-12-29T14:20:30.881Z,100108.16
2018-12-29T14:23:36.521Z,100110.69
2018-12-29T14:26:42.156Z,100115.62
2018-12-29T14:29:47.754Z,100114.81
2018-12-29T14:32:53.345Z,100120.94
2018-12-29T14:35:59.060Z,100122.49
2018-12-29T14:39:05.991Z,100126.79
2018-12-29T14:42:12.623Z,100130.59
2018-12-29T14:45:18.240Z,100128.06
2018-12-29T14:48:23.898Z,100125.05
2018-12-29T14:51:30.565Z,100131.67
2018-12-29T14:54:36.189Z,100142.39
2018-12-29T14:57:41.895Z,100151.12
2018-12-29T15:00:47.525Z,100145.59
2018-12-29T15:03:53.180Z,100158.00
2018-12-29T15:06:58.828Z,100162.88
2018-12-29T15:10:05.335Z,100163.71
2018-12-29T15:13:10.955Z,100172.54
2018-12-29T15:16:16.588Z,100179.75
2018-12-29T15:19:22.197Z,100181.99
2018-12-29T15:22:27.817Z,100184.25
2018-12-29T15:25:33.414Z,100187.72
2018-12-29T15:28:39.051Z,100189.23
2018-12-29T15:31:44.708Z,100186.88
2018-12-29T15:34:50.366Z,100189.84
2018-12-29T15:37:56.052Z,100195.62
2018-12-29T15:41:01.655Z,100203.92
2018-12-29T15:44:07.280Z,100216.94
2018-12-29T15:47:13.010Z,100215.87
2018-12-29T15:50:18.586Z,100224.42
2018-12-29T15:53:24.654Z,100219.67
2018-12-29T15:56:30.267Z,100235.17
2018-12-29T15:59:35.858Z,100229.97
2018-12-29T16:02:41.503Z,100231.27
2018-12-29T16:05:47.158Z,100230.33
2018-12-29T16:08:52.822Z,100234.95
2018-12-29T16:12:00.623Z,100241.11
2018-12-29T16:15:06.383Z,100244.05
2018-12-29T16:18:12.054Z,100244.53
2018-12-29T16:21:17.687Z,100250.78
2018-12-29T16:24:23.329Z,100257.78
2018-12-29T16:27:28.920Z,100262.52
2018-12-29T16:30:34.513Z,100256.97
2018-12-29T16:33:41.817Z,100263.84
2018-12-29T16:36:47.474Z,100271.18
2018-12-29T16:39:53.114Z,100269.39
2018-12-29T16:42:59.118Z,100274.58
2018-12-29T16:46:05.084Z,100282.05
2018-12-29T16:49:10.719Z,100282.63
2018-12-29T16:52:16.322Z,100287.37
2018-12-29T16:55:21.927Z,100282.06
2018-12-29T16:58:27.559Z,100289.14
2018-12-29T17:01:33.352Z,100293.02
2018-12-29T17:04:41.272Z,100292.13
2018-12-29T17:07:46.877Z,100291.16
2018-12-29T17:10:52.510Z,100296.50
2018-12-29T17:13:58.111Z,100304.52
2018-12-29T17:17:03.858Z,100302.83
2018-12-29T17:20:09.909Z,100304.59
2018-12-29T17:23:15.725Z,100304.99
2018-12-29T17:26:21.363Z,100309.06
2018-12-29T17:29:27.032Z,100304.97
2018-12-29T17:32:32.695Z,100310.17
2018-12-29T17:35:38.331Z,100311.14
2018-12-29T17:38:44.028Z,100311.00
2018-12-29T17:41:49.683Z,100315.70
2018-12-29T17:44:55.324Z,100315.28
2018-12-29T17:48:00.921Z,100314.55
2018-12-29T17:51:06.813Z,100317.05
2018-12-29T17:54:12.834Z,100321.42
2018-12-29T17:57:18.438Z,100324.48
2018-12-29T18:00:24.065Z,100320.25
2018-12-29T18:03:29.714Z,100326.78
2018-12-29T18:06:35.972Z,100327.19
2018-12-29T18:09:41.953Z,100324.52
2018-12-29T18:12:47.548Z,100320.95
2018-12-29T18:15:53.154Z,100320.21
2018-12-29T18:18:58.838Z,100329.09
2018-12-29T18:22:04.565Z,100335.45
2018-12-29T18:25:10.201Z,100329.55
2018-12-29T18:28:16.297Z,100335.55
2018-12-29T18:31:21.971Z,100341.16
2018-12-29T18:34:27.657Z,100341.08
2018-12-29T18:37:33.310Z,100339.63
2018-12-29T18:40:39.138Z,100347.81
2018-12-29T18:43:44.768Z,100360.87
2018-12-29T18:46:50.446Z,100358.78
2018-12-29T18:49:56.096Z,100354.00
2018-12-29T18:53:02.045Z,100350.42
2018-12-29T18:56:07.791Z,100359.05
2018-12-29T18:59:13.351Z,100364.34
2018-12-29T19:02:18.984Z,100359.92
2018-12-29T19:05:24.633Z,100366.99
2018-12-29T19:08:30.251Z,100357.44
2018-12-29T19:11:35.843Z,100362.36
2018-12-29T19:14:41.860Z,100361.01
2018-12-29T19:17:47.459Z,100359.38
2018-12-29T19:20:53.479Z,100357.72
2018-12-29T19:23:59.493Z,100355.98
2018-12-29T19:27:05.625Z,100357.85
2018-12-29T19:30:11.261Z,100360.87
2018-12-29T19:33:16.889Z,100366.50
2018-12-29T19:36:22.798Z,100362.78
2018-12-29T19:39:28.417Z,100354.59
2018-12-29T19:42:34.034Z,100354.09
2018-12-29T19:45:39.656Z,100359.05
2018-12-29T19:48:46.412Z,100366.26
2018-12-29T19:51:52.089Z,100363.10
2018-12-29T19:54:58.240Z,100372.06
2018-12-29T19:58:04.790Z,100377.52
2018-12-29T20:01:11.789Z,100373.65
2018-12-29T20:04:17.418Z,100370.56
2018-12-29T20:07:23.129Z,100371.39
2018-12-29T20:10:28.739Z,100377.50
2018-12-29T20:13:35.333Z,100373.67
2018-12-29T20:16:40.973Z,100377.35
2018-12-29T20:19:46.586Z,100370.47
2018-12-29T20:22:53.297Z,100369.68
2018-12-29T20:25:58.941Z,100375.66
2018-12-29T20:29:04.533Z,100380.91
2018-12-29T20:32:10.145Z,100385.28
2018-12-29T20:35:15.766Z,100385.11
2018-12-29T20:38:21.424Z,100379.31
2018-12-29T20:41:27.067Z,100380.09
2018-12-29T20:44:32.705Z,100373.92
2018-12-29T20:47:38.757Z,100381.23
2018-12-29T20:50:44.425Z,100380.92
2018-12-29T20:53:50.175Z,100385.72
2018-12-29T20:56:55.965Z,100375.73
2018-12-29T21:00:01.611Z,100375.27
2018-12-29T21:03:08.737Z,100375.36
2018-12-29T21:06:14.323Z,100371.23
2018-12-29T21:09:19.921Z,100373.01
2018-12-29T21:12:25.577Z,100371.02
2018-12-29T21:15:31.181Z,100376.88
2018-12-29T21:18:36.843Z,100373.75
2018-12-29T21:21:42.840Z,100374.51
2018-12-29T21:24:48.536Z,100378.70
2018-12-29T21:27:54.226Z,100382.58
2018-12-29T21:30:59.852Z,100378.81
2018-12-29T21:34:05.517Z,100379.55
2018-12-29T21:37:11.127Z,100379.38
2018-12-29T21:40:16.759Z,100380.31
2018-12-29T21:43:22.479Z,100389.33
2018-12-29T21:46:28.136Z,100385.20
2018-12-29T21:49:34.740Z,100384.55
2018-12-29T21:52:40.422Z,100386.50
2018-12-29T21:55:46.310Z,100388.72
2018-12-29T21:58:51.948Z,100386.63
2018-12-29T22:01:57.587Z,100382.81
2018-12-29T22:05:03.330Z,100381.89
2018-12-29T22:08:09.028Z,100385.25
2018-12-29T22:11:14.647Z,100388.85
2018-12-29T22:14:20.301Z,100388.02
2018-12-29T22:17:26.157Z,100387.09
2018-12-29T22:20:33.449Z,100387.52
2018-12-29T22:23:39.295Z,100380.25
2018-12-29T22:26:44.935Z,100384.15
2018-12-29T22:29:50.905Z,100383.09
2018-12-29T22:32:56.553Z,100383.04
2018-12-29T22:36:02.155Z,100381.69
2018-12-29T22:39:08.313Z,100384.70
2018-12-29T22:42:13.922Z,100373.84
2018-12-29T22:45:19.591Z,100368.52
2018-12-29T22:48:25.259Z,100354.20
2018-12-29T22:51:30.889Z,100362.22
2018-12-29T22:54:36.564Z,100349.84
2018-12-29T22:57:42.273Z,100356.45
2018-12-29T23:00:49.710Z,100346.86
2018-12-29T23:03:56.323Z,100346.05
2018-12-29T23:07:01.915Z,100340.80
2018-12-29T23:10:07.557Z,100335.25
2018-12-29T23:13:13.192Z,100326.73
2018-12-29T23:16:18.820Z,100327.47
2018-12-29T23:19:24.735Z,100316.00
2018-12-29T23:22:30.326Z,100314.38
2018-12-29T23:25:35.959Z,100311.37
2018-12-29T23:28:41.549Z,100312.97
2018-12-29T23:31:47.160Z,100308.03
2018-12-29T23:34:52.785Z,100303.38
2018-12-29T23:37:58.396Z,100299.39
2018-12-29T23:41:04.020Z,100303.73
2018-12-29T23:44:09.666Z,100298.91
2018-12-29T23:47:15.348Z,100297.42
2018-12-29T23:50:20.953Z,100295.88
2018-12-29T23:53:27.042Z,100293.78
2018-12-29T23:56:33.085Z,100291.17
2018-12-29T23:59:38.704Z,100292.76
